Candia, New Hampshire
Current Conditions -  °F | °C
As of 6:53 PM on Saturday 25 Oct 2014 (Local Time) from KMHT Reporting Station
Scattered Clouds Scattered Clouds  
Wind Chill: 58°   Ceiling: Unl
Heat Index: 58°   Visibility: 10mi
Dew Point: 42°   Wind: 6mph
Humidity: 56%   Direction: 240°WSW
Pressure: 29.56"   Gusts: NA
Location:  43.08°N, 71.28°W
Report Text: KMHT 252253Z 24005KT 10SM FEW060 SCT200 14/06 A2956 RMK AO2 SLP024 T01440056
Loading
Personal Weather Stations






























Interactive Weather Map
Tropical Storm Tracking
New forecast layout! Learn more

10-Day Weather Forecast

Advertisements
Track Severe Weather on mobile